sensor_id;sensor_type;location;lat;lon;timestamp;temperature;humidity
44477;DHT22;30180;44.788;10.366;2022-12-08T00:01:45;17.30;68.00
44477;DHT22;30180;44.788;10.366;2022-12-08T00:04:14;17.30;68.00
44477;DHT22;30180;44.788;10.366;2022-12-08T00:06:43;17.30;68.00
44477;DHT22;30180;44.788;10.366;2022-12-08T00:09:31;17.30;68.00
44477;DHT22;30180;44.788;10.366;2022-12-08T00:12:07;17.30;68.00
44477;DHT22;30180;44.788;10.366;2022-12-08T00:14:37;17.30;68.00
44477;DHT22;30180;44.788;10.366;2022-12-08T00:17:08;17.30;68.00
44477;DHT22;30180;44.788;10.366;2022-12-08T00:19:38;17.30;68.00
44477;DHT22;30180;44.788;10.366;2022-12-08T00:22:09;17.30;68.00
44477;DHT22;30180;44.788;10.366;2022-12-08T00:24:39;17.30;68.00
44477;DHT22;30180;44.788;10.366;2022-12-08T00:27:09;17.30;68.00
44477;DHT22;30180;44.788;10.366;2022-12-08T00:29:37;17.30;68.00
44477;DHT22;30180;44.788;10.366;2022-12-08T00:32:06;17.30;68.00
44477;DHT22;30180;44.788;10.366;2022-12-08T00:34:34;17.30;68.00
44477;DHT22;30180;44.788;10.366;2022-12-08T00:37:03;17.30;68.00
44477;DHT22;30180;44.788;10.366;2022-12-08T00:39:32;17.20;67.90
44477;DHT22;30180;44.788;10.366;2022-12-08T00:42:01;17.20;67.90
44477;DHT22;30180;44.788;10.366;2022-12-08T00:44:42;17.20;68.00
44477;DHT22;30180;44.788;10.366;2022-12-08T00:47:12;17.20;67.90
44477;DHT22;30180;44.788;10.366;2022-12-08T00:49:40;17.20;67.90
44477;DHT22;30180;44.788;10.366;2022-12-08T00:52:09;17.20;67.90
44477;DHT22;30180;44.788;10.366;2022-12-08T00:54:39;17.20;67.90
44477;DHT22;30180;44.788;10.366;2022-12-08T00:57:08;17.20;68.00
44477;DHT22;30180;44.788;10.366;2022-12-08T00:59:37;17.20;67.90
44477;DHT22;30180;44.788;10.366;2022-12-08T01:02:05;17.20;68.00
44477;DHT22;30180;44.788;10.366;2022-12-08T01:04:33;17.20;68.00
44477;DHT22;30180;44.788;10.366;2022-12-08T01:07:01;17.20;68.00
44477;DHT22;30180;44.788;10.366;2022-12-08T01:09:30;17.20;68.00
44477;DHT22;30180;44.788;10.366;2022-12-08T01:12:00;17.20;68.00
44477;DHT22;30180;44.788;10.366;2022-12-08T01:14:28;17.20;68.00
44477;DHT22;30180;44.788;10.366;2022-12-08T01:16:56;17.20;68.00
44477;DHT22;30180;44.788;10.366;2022-12-08T01:19:24;17.20;68.00
44477;DHT22;30180;44.788;10.366;2022-12-08T01:21:53;17.20;68.00
44477;DHT22;30180;44.788;10.366;2022-12-08T01:24:21;17.20;68.00
44477;DHT22;30180;44.788;10.366;2022-12-08T01:26:50;17.10;67.90
44477;DHT22;30180;44.788;10.366;2022-12-08T01:29:19;17.20;68.00
44477;DHT22;30180;44.788;10.366;2022-12-08T01:31:48;17.10;67.90
44477;DHT22;30180;44.788;10.366;2022-12-08T01:34:16;17.10;67.90
44477;DHT22;30180;44.788;10.366;2022-12-08T01:36:44;17.10;67.90
44477;DHT22;30180;44.788;10.366;2022-12-08T01:39:16;17.10;67.90
44477;DHT22;30180;44.788;10.366;2022-12-08T01:41:45;17.10;67.90
44477;DHT22;30180;44.788;10.366;2022-12-08T01:47:35;17.10;68.00
44477;DHT22;30180;44.788;10.366;2022-12-08T01:50:06;17.10;68.00
44477;DHT22;30180;44.788;10.366;2022-12-08T01:52:38;17.10;68.00
44477;DHT22;30180;44.788;10.366;2022-12-08T01:55:10;17.10;68.00
44477;DHT22;30180;44.788;10.366;2022-12-08T01:57:42;17.10;68.00
44477;DHT22;30180;44.788;10.366;2022-12-08T02:00:16;17.00;67.90
44477;DHT22;30180;44.788;10.366;2022-12-08T02:02:51;17.10;68.00
44477;DHT22;30180;44.788;10.366;2022-12-08T02:05:21;17.00;67.90
44477;DHT22;30180;44.788;10.366;2022-12-08T02:07:51;17.10;67.90
44477;DHT22;30180;44.788;10.366;2022-12-08T02:10:21;17.10;68.00
44477;DHT22;30180;44.788;10.366;2022-12-08T02:12:51;17.10;68.00
44477;DHT22;30180;44.788;10.366;2022-12-08T02:15:24;17.10;68.00
44477;DHT22;30180;44.788;10.366;2022-12-08T02:18:10;17.10;68.00
44477;DHT22;30180;44.788;10.366;2022-12-08T02:20:49;17.00;67.90
44477;DHT22;30180;44.788;10.366;2022-12-08T02:23:27;17.00;67.90
44477;DHT22;30180;44.788;10.366;2022-12-08T02:26:21;17.10;68.00
44477;DHT22;30180;44.788;10.366;2022-12-08T02:29:26;17.00;67.90
44477;DHT22;30180;44.788;10.366;2022-12-08T02:32:17;17.00;67.90
44477;DHT22;30180;44.788;10.366;2022-12-08T02:34:52;17.00;67.90
44477;DHT22;30180;44.788;10.366;2022-12-08T02:37:28;17.00;67.90
44477;DHT22;30180;44.788;10.366;2022-12-08T02:40:02;17.00;67.90
44477;DHT22;30180;44.788;10.366;2022-12-08T02:42:39;17.00;67.90
44477;DHT22;30180;44.788;10.366;2022-12-08T02:45:13;17.00;68.00
44477;DHT22;30180;44.788;10.366;2022-12-08T02:47:44;17.00;67.90
44477;DHT22;30180;44.788;10.366;2022-12-08T02:50:14;17.00;68.00
44477;DHT22;30180;44.788;10.366;2022-12-08T02:52:43;17.00;67.90
44477;DHT22;30180;44.788;10.366;2022-12-08T02:55:24;17.00;67.90
44477;DHT22;30180;44.788;10.366;2022-12-08T02:58:09;17.00;67.90
44477;DHT22;30180;44.788;10.366;2022-12-08T03:00:49;17.00;68.00
44477;DHT22;30180;44.788;10.366;2022-12-08T03:03:27;17.00;67.90
44477;DHT22;30180;44.788;10.366;2022-12-08T03:06:04;17.00;67.90
44477;DHT22;30180;44.788;10.366;2022-12-08T03:08:39;17.00;67.90
44477;DHT22;30180;44.788;10.366;2022-12-08T03:11:12;17.00;67.90
44477;DHT22;30180;44.788;10.366;2022-12-08T03:13:44;16.90;67.90
44477;DHT22;30180;44.788;10.366;2022-12-08T03:16:16;17.00;67.90
44477;DHT22;30180;44.788;10.366;2022-12-08T03:18:48;17.00;67.90
44477;DHT22;30180;44.788;10.366;2022-12-08T03:21:20;16.90;67.90
44477;DHT22;30180;44.788;10.366;2022-12-08T03:23:51;16.90;67.90
44477;DHT22;30180;44.788;10.366;2022-12-08T03:26:25;17.00;68.00
44477;DHT22;30180;44.788;10.366;2022-12-08T03:28:56;16.90;67.90
44477;DHT22;30180;44.788;10.366;2022-12-08T03:31:26;16.90;67.90
44477;DHT22;30180;44.788;10.366;2022-12-08T03:33:56;16.90;67.90
44477;DHT22;30180;44.788;10.366;2022-12-08T03:36:27;16.90;67.90
44477;DHT22;30180;44.788;10.366;2022-12-08T03:38:55;16.90;68.50
44477;DHT22;30180;44.788;10.366;2022-12-08T03:41:23;16.90;67.90
44477;DHT22;30180;44.788;10.366;2022-12-08T03:43:53;16.90;67.90
44477;DHT22;30180;44.788;10.366;2022-12-08T03:46:24;16.90;67.90
44477;DHT22;30180;44.788;10.366;2022-12-08T03:48:52;16.90;67.90
44477;DHT22;30180;44.788;10.366;2022-12-08T03:51:20;16.90;67.90
44477;DHT22;30180;44.788;10.366;2022-12-08T03:53:50;16.90;67.90
44477;DHT22;30180;44.788;10.366;2022-12-08T03:56:22;16.90;67.90
44477;DHT22;30180;44.788;10.366;2022-12-08T03:58:51;16.90;67.90
44477;DHT22;30180;44.788;10.366;2022-12-08T04:01:19;16.90;67.90
44477;DHT22;30180;44.788;10.366;2022-12-08T04:03:48;16.90;67.90
44477;DHT22;30180;44.788;10.366;2022-12-08T04:06:17;16.90;67.90
44477;DHT22;30180;44.788;10.366;2022-12-08T04:08:46;16.90;67.90
44477;DHT22;30180;44.788;10.366;2022-12-08T04:11:15;16.90;67.90
44477;DHT22;30180;44.788;10.366;2022-12-08T04:13:44;16.90;67.90
44477;DHT22;30180;44.788;10.366;2022-12-08T04:16:15;16.90;68.00
44477;DHT22;30180;44.788;10.366;2022-12-08T04:18:44;16.90;68.00
44477;DHT22;30180;44.788;10.366;2022-12-08T04:21:12;16.90;68.00
44477;DHT22;30180;44.788;10.366;2022-12-08T04:23:41;16.90;68.00
44477;DHT22;30180;44.788;10.366;2022-12-08T04:26:10;16.90;68.10
44477;DHT22;30180;44.788;10.366;2022-12-08T04:28:39;16.90;68.10
44477;DHT22;30180;44.788;10.366;2022-12-08T04:31:08;16.90;68.10
44477;DHT22;30180;44.788;10.366;2022-12-08T04:33:36;16.90;68.10
44477;DHT22;30180;44.788;10.366;2022-12-08T04:36:06;16.90;68.10
44477;DHT22;30180;44.788;10.366;2022-12-08T04:38:34;16.90;68.10
44477;DHT22;30180;44.788;10.366;2022-12-08T04:41:03;17.00;68.20
44477;DHT22;30180;44.788;10.366;2022-12-08T04:43:31;17.00;68.20
44477;DHT22;30180;44.788;10.366;2022-12-08T04:46:01;17.00;68.30
44477;DHT22;30180;44.788;10.366;2022-12-08T04:48:29;17.00;68.30
44477;DHT22;30180;44.788;10.366;2022-12-08T04:50:57;17.00;68.30
44477;DHT22;30180;44.788;10.366;2022-12-08T04:53:25;17.00;68.30
44477;DHT22;30180;44.788;10.366;2022-12-08T04:55:54;17.00;68.30
44477;DHT22;30180;44.788;10.366;2022-12-08T04:58:22;17.10;68.40
44477;DHT22;30180;44.788;10.366;2022-12-08T05:00:50;17.10;68.40
44477;DHT22;30180;44.788;10.366;2022-12-08T05:03:20;17.10;68.40
44477;DHT22;30180;44.788;10.366;2022-12-08T05:05:54;17.10;68.40
44477;DHT22;30180;44.788;10.366;2022-12-08T05:08:22;17.10;68.50
44477;DHT22;30180;44.788;10.366;2022-12-08T05:10:51;17.20;68.50
44477;DHT22;30180;44.788;10.366;2022-12-08T05:13:19;17.20;68.60
44477;DHT22;30180;44.788;10.366;2022-12-08T05:15:47;17.20;68.60
44477;DHT22;30180;44.788;10.366;2022-12-08T05:18:16;17.20;68.60
44477;DHT22;30180;44.788;10.366;2022-12-08T05:20:45;17.20;68.60
44477;DHT22;30180;44.788;10.366;2022-12-08T05:23:14;17.30;68.70
44477;DHT22;30180;44.788;10.366;2022-12-08T05:25:42;17.30;68.70
44477;DHT22;30180;44.788;10.366;2022-12-08T05:28:11;17.30;68.70
44477;DHT22;30180;44.788;10.366;2022-12-08T05:30:59;17.30;68.70
44477;DHT22;30180;44.788;10.366;2022-12-08T05:33:27;17.40;68.70
44477;DHT22;30180;44.788;10.366;2022-12-08T05:35:57;17.40;68.70
44477;DHT22;30180;44.788;10.366;2022-12-08T05:38:25;17.40;68.70
44477;DHT22;30180;44.788;10.366;2022-12-08T05:40:53;17.40;68.70
44477;DHT22;30180;44.788;10.366;2022-12-08T05:43:22;17.50;68.80
44477;DHT22;30180;44.788;10.366;2022-12-08T05:45:50;17.50;68.80
44477;DHT22;30180;44.788;10.366;2022-12-08T05:48:18;17.50;68.80
44477;DHT22;30180;44.788;10.366;2022-12-08T05:50:47;17.50;68.80
44477;DHT22;30180;44.788;10.366;2022-12-08T05:53:18;17.50;68.80
44477;DHT22;30180;44.788;10.366;2022-12-08T05:55:47;17.50;68.70
44477;DHT22;30180;44.788;10.366;2022-12-08T05:58:17;17.50;68.70
44477;DHT22;30180;44.788;10.366;2022-12-08T06:00:46;17.50;68.70
44477;DHT22;30180;44.788;10.366;2022-12-08T06:03:15;17.60;68.70
44477;DHT22;30180;44.788;10.366;2022-12-08T06:05:45;17.50;68.70
44477;DHT22;30180;44.788;10.366;2022-12-08T06:08:14;17.60;68.70
44477;DHT22;30180;44.788;10.366;2022-12-08T06:10:44;17.60;68.70
44477;DHT22;30180;44.788;10.366;2022-12-08T06:13:13;17.60;68.60
44477;DHT22;30180;44.788;10.366;2022-12-08T06:15:41;17.60;68.70
44477;DHT22;30180;44.788;10.366;2022-12-08T06:18:10;17.60;68.60
44477;DHT22;30180;44.788;10.366;2022-12-08T06:20:38;17.60;68.60
44477;DHT22;30180;44.788;10.366;2022-12-08T06:23:06;17.60;68.60
44477;DHT22;30180;44.788;10.366;2022-12-08T06:25:35;17.60;68.60
44477;DHT22;30180;44.788;10.366;2022-12-08T06:28:05;17.60;68.50
44477;DHT22;30180;44.788;10.366;2022-12-08T06:30:34;17.60;68.50
44477;DHT22;30180;44.788;10.366;2022-12-08T06:33:02;17.60;68.50
44477;DHT22;30180;44.788;10.366;2022-12-08T06:35:30;17.60;68.50
44477;DHT22;30180;44.788;10.366;2022-12-08T06:37:59;17.60;68.50
44477;DHT22;30180;44.788;10.366;2022-12-08T06:40:27;17.60;68.50
44477;DHT22;30180;44.788;10.366;2022-12-08T06:42:55;17.60;68.50
44477;DHT22;30180;44.788;10.366;2022-12-08T06:45:25;17.60;68.50
44477;DHT22;30180;44.788;10.366;2022-12-08T06:47:53;17.60;68.50
44477;DHT22;30180;44.788;10.366;2022-12-08T06:50:21;17.60;68.50
44477;DHT22;30180;44.788;10.366;2022-12-08T06:52:50;17.60;68.50
44477;DHT22;30180;44.788;10.366;2022-12-08T06:55:30;17.60;69.20
44477;DHT22;30180;44.788;10.366;2022-12-08T06:58:19;17.60;68.60
44477;DHT22;30180;44.788;10.366;2022-12-08T07:00:48;17.60;68.60
44477;DHT22;30180;44.788;10.366;2022-12-08T07:03:17;17.60;68.60
44477;DHT22;30180;44.788;10.366;2022-12-08T07:05:45;17.70;68.70
44477;DHT22;30180;44.788;10.366;2022-12-08T07:08:14;17.70;68.70
44477;DHT22;30180;44.788;10.366;2022-12-08T07:10:42;17.70;68.70
44477;DHT22;30180;44.788;10.366;2022-12-08T07:13:10;17.70;68.70
44477;DHT22;30180;44.788;10.366;2022-12-08T07:15:38;17.70;68.70
44477;DHT22;30180;44.788;10.366;2022-12-08T07:18:08;17.70;68.70
44477;DHT22;30180;44.788;10.366;2022-12-08T07:20:37;17.70;68.70
44477;DHT22;30180;44.788;10.366;2022-12-08T07:23:05;17.70;68.70
44477;DHT22;30180;44.788;10.366;2022-12-08T07:25:33;17.70;68.70
44477;DHT22;30180;44.788;10.366;2022-12-08T07:28:07;17.80;68.70
44477;DHT22;30180;44.788;10.366;2022-12-08T07:30:36;17.80;68.70
44477;DHT22;30180;44.788;10.366;2022-12-08T07:33:04;17.70;68.60
44477;DHT22;30180;44.788;10.366;2022-12-08T07:35:34;17.70;68.60
44477;DHT22;30180;44.788;10.366;2022-12-08T07:38:02;17.80;68.60
44477;DHT22;30180;44.788;10.366;2022-12-08T07:40:30;17.80;68.60
44477;DHT22;30180;44.788;10.366;2022-12-08T07:42:59;17.80;68.60
44477;DHT22;30180;44.788;10.366;2022-12-08T07:45:27;17.80;68.70
44477;DHT22;30180;44.788;10.366;2022-12-08T07:47:57;17.80;68.60
44477;DHT22;30180;44.788;10.366;2022-12-08T07:50:26;17.70;68.60
44477;DHT22;30180;44.788;10.366;2022-12-08T07:52:55;17.70;68.60
44477;DHT22;30180;44.788;10.366;2022-12-08T07:55:24;17.70;68.60
44477;DHT22;30180;44.788;10.366;2022-12-08T07:57:52;17.80;68.60
44477;DHT22;30180;44.788;10.366;2022-12-08T08:00:20;17.70;68.60
44477;DHT22;30180;44.788;10.366;2022-12-08T08:02:48;17.70;68.60
44477;DHT22;30180;44.788;10.366;2022-12-08T08:05:17;17.80;68.60
44477;DHT22;30180;44.788;10.366;2022-12-08T08:07:46;17.70;68.60
44477;DHT22;30180;44.788;10.366;2022-12-08T08:10:16;17.70;68.60
44477;DHT22;30180;44.788;10.366;2022-12-08T08:12:44;17.70;68.50
44477;DHT22;30180;44.788;10.366;2022-12-08T08:15:13;17.70;68.50
44477;DHT22;30180;44.788;10.366;2022-12-08T08:17:41;17.70;68.50
44477;DHT22;30180;44.788;10.366;2022-12-08T08:20:10;17.70;68.50
44477;DHT22;30180;44.788;10.366;2022-12-08T08:22:39;17.70;68.50
44477;DHT22;30180;44.788;10.366;2022-12-08T08:25:08;17.70;68.50
44477;DHT22;30180;44.788;10.366;2022-12-08T08:27:38;17.70;68.60
44477;DHT22;30180;44.788;10.366;2022-12-08T08:30:07;17.70;68.50
44477;DHT22;30180;44.788;10.366;2022-12-08T08:32:42;17.70;68.50
44477;DHT22;30180;44.788;10.366;2022-12-08T08:35:11;17.70;68.50
44477;DHT22;30180;44.788;10.366;2022-12-08T08:37:39;17.60;68.50
44477;DHT22;30180;44.788;10.366;2022-12-08T08:40:15;17.70;68.50
44477;DHT22;30180;44.788;10.366;2022-12-08T08:42:44;17.70;68.60
44477;DHT22;30180;44.788;10.366;2022-12-08T08:45:12;17.70;68.50
44477;DHT22;30180;44.788;10.366;2022-12-08T08:47:41;17.70;68.50
44477;DHT22;30180;44.788;10.366;2022-12-08T08:50:09;17.60;68.50
44477;DHT22;30180;44.788;10.366;2022-12-08T08:52:37;17.60;68.50
44477;DHT22;30180;44.788;10.366;2022-12-08T08:55:06;17.60;68.50
44477;DHT22;30180;44.788;10.366;2022-12-08T08:57:34;17.60;68.50
44477;DHT22;30180;44.788;10.366;2022-12-08T09:00:05;17.60;68.50
44477;DHT22;30180;44.788;10.366;2022-12-08T09:02:36;17.60;68.50
44477;DHT22;30180;44.788;10.366;2022-12-08T09:05:05;17.60;68.50
44477;DHT22;30180;44.788;10.366;2022-12-08T09:07:33;17.60;68.50
44477;DHT22;30180;44.788;10.366;2022-12-08T09:10:03;17.60;68.50
44477;DHT22;30180;44.788;10.366;2022-12-08T09:12:32;17.60;68.50
44477;DHT22;30180;44.788;10.366;2022-12-08T09:15:00;17.60;68.50
44477;DHT22;30180;44.788;10.366;2022-12-08T09:17:30;17.60;68.50
44477;DHT22;30180;44.788;10.366;2022-12-08T09:19:58;17.60;68.50
44477;DHT22;30180;44.788;10.366;2022-12-08T09:22:27;17.60;68.50
44477;DHT22;30180;44.788;10.366;2022-12-08T09:24:55;17.60;68.60
44477;DHT22;30180;44.788;10.366;2022-12-08T09:27:24;17.60;68.50
44477;DHT22;30180;44.788;10.366;2022-12-08T09:29:52;17.60;68.50
44477;DHT22;30180;44.788;10.366;2022-12-08T09:32:20;17.60;68.60
44477;DHT22;30180;44.788;10.366;2022-12-08T09:34:50;17.50;68.50
44477;DHT22;30180;44.788;10.366;2022-12-08T09:37:21;17.50;68.50
44477;DHT22;30180;44.788;10.366;2022-12-08T09:39:49;17.50;68.40
44477;DHT22;30180;44.788;10.366;2022-12-08T09:42:25;17.50;68.40
44477;DHT22;30180;44.788;10.366;2022-12-08T09:45:02;17.60;68.60
44477;DHT22;30180;44.788;10.366;2022-12-08T09:47:34;17.50;68.50
44477;DHT22;30180;44.788;10.366;2022-12-08T09:50:11;17.50;68.50
44477;DHT22;30180;44.788;10.366;2022-12-08T09:52:42;17.50;68.50
44477;DHT22;30180;44.788;10.366;2022-12-08T09:55:19;17.50;68.50
44477;DHT22;30180;44.788;10.366;2022-12-08T09:57:54;17.50;68.50
44477;DHT22;30180;44.788;10.366;2022-12-08T10:00:24;17.50;68.50
44477;DHT22;30180;44.788;10.366;2022-12-08T10:02:54;17.50;68.50
44477;DHT22;30180;44.788;10.366;2022-12-08T10:05:25;17.50;68.50
44477;DHT22;30180;44.788;10.366;2022-12-08T10:08:02;17.50;68.50
44477;DHT22;30180;44.788;10.366;2022-12-08T10:10:38;17.50;68.50
44477;DHT22;30180;44.788;10.366;2022-12-08T10:13:13;17.50;68.50
44477;DHT22;30180;44.788;10.366;2022-12-08T10:15:55;17.40;68.60
44477;DHT22;30180;44.788;10.366;2022-12-08T10:18:28;17.50;68.60
44477;DHT22;30180;44.788;10.366;2022-12-08T10:21:10;17.50;68.60
44477;DHT22;30180;44.788;10.366;2022-12-08T10:23:40;17.50;68.60
44477;DHT22;30180;44.788;10.366;2022-12-08T10:26:13;17.50;68.70
44477;DHT22;30180;44.788;10.366;2022-12-08T10:28:41;17.50;68.70
44477;DHT22;30180;44.788;10.366;2022-12-08T10:31:16;17.50;68.70
44477;DHT22;30180;44.788;10.366;2022-12-08T10:33:46;17.50;68.70
44477;DHT22;30180;44.788;10.366;2022-12-08T10:36:16;17.50;68.70
44477;DHT22;30180;44.788;10.366;2022-12-08T10:38:45;17.50;68.80
44477;DHT22;30180;44.788;10.366;2022-12-08T10:41:14;17.50;68.80
44477;DHT22;30180;44.788;10.366;2022-12-08T10:43:47;17.50;68.90
44477;DHT22;30180;44.788;10.366;2022-12-08T10:46:17;17.50;68.90
44477;DHT22;30180;44.788;10.366;2022-12-08T10:48:47;17.50;68.90
44477;DHT22;30180;44.788;10.366;2022-12-08T10:51:29;17.60;69.00
44477;DHT22;30180;44.788;10.366;2022-12-08T10:54:02;17.60;69.00
44477;DHT22;30180;44.788;10.366;2022-12-08T10:56:32;17.60;69.10
44477;DHT22;30180;44.788;10.366;2022-12-08T10:59:12;17.60;69.10
44477;DHT22;30180;44.788;10.366;2022-12-08T11:01:41;17.70;69.20
44477;DHT22;30180;44.788;10.366;2022-12-08T11:04:15;17.70;69.20
44477;DHT22;30180;44.788;10.366;2022-12-08T11:06:46;17.70;69.20
44477;DHT22;30180;44.788;10.366;2022-12-08T11:09:24;17.70;69.20
44477;DHT22;30180;44.788;10.366;2022-12-08T11:11:58;17.70;69.30
44477;DHT22;30180;44.788;10.366;2022-12-08T11:14:29;17.70;69.30
44477;DHT22;30180;44.788;10.366;2022-12-08T11:17:03;17.80;69.30
44477;DHT22;30180;44.788;10.366;2022-12-08T11:19:36;17.80;69.30
44477;DHT22;30180;44.788;10.366;2022-12-08T11:22:21;17.80;69.30
44477;DHT22;30180;44.788;10.366;2022-12-08T11:25:00;17.80;69.30
44477;DHT22;30180;44.788;10.366;2022-12-08T11:27:29;17.80;69.90
44477;DHT22;30180;44.788;10.366;2022-12-08T11:30:00;17.90;69.30
44477;DHT22;30180;44.788;10.366;2022-12-08T11:32:29;17.90;69.30
44477;DHT22;30180;44.788;10.366;2022-12-08T11:35:00;17.90;69.30
44477;DHT22;30180;44.788;10.366;2022-12-08T11:37:33;17.90;69.30
44477;DHT22;30180;44.788;10.366;2022-12-08T11:40:05;17.90;69.30
44477;DHT22;30180;44.788;10.366;2022-12-08T11:42:46;17.90;69.30
44477;DHT22;30180;44.788;10.366;2022-12-08T11:45:20;17.90;69.30
44477;DHT22;30180;44.788;10.366;2022-12-08T11:47:59;17.90;69.30
44477;DHT22;30180;44.788;10.366;2022-12-08T11:50:33;17.90;69.30
44477;DHT22;30180;44.788;10.366;2022-12-08T11:53:04;17.90;69.30
44477;DHT22;30180;44.788;10.366;2022-12-08T11:55:42;17.90;69.30
44477;DHT22;30180;44.788;10.366;2022-12-08T11:58:17;17.90;69.90
44477;DHT22;30180;44.788;10.366;2022-12-08T12:00:47;17.90;69.30
44477;DHT22;30180;44.788;10.366;2022-12-08T12:03:22;17.90;69.90
44477;DHT22;30180;44.788;10.366;2022-12-08T12:06:16;17.90;69.30
44477;DHT22;30180;44.788;10.366;2022-12-08T12:09:14;17.90;69.90
44477;DHT22;30180;44.788;10.366;2022-12-08T12:11:55;17.90;69.30
44477;DHT22;30180;44.788;10.366;2022-12-08T12:14:55;17.90;69.30
44477;DHT22;30180;44.788;10.366;2022-12-08T12:17:36;17.90;69.20
44477;DHT22;30180;44.788;10.366;2022-12-08T12:20:12;17.80;69.20
44477;DHT22;30180;44.788;10.366;2022-12-08T12:22:45;17.90;69.20
44477;DHT22;30180;44.788;10.366;2022-12-08T12:25:19;17.90;69.20
44477;DHT22;30180;44.788;10.366;2022-12-08T12:27:51;17.80;69.20
44477;DHT22;30180;44.788;10.366;2022-12-08T12:30:24;17.80;69.20
44477;DHT22;30180;44.788;10.366;2022-12-08T12:32:56;17.90;69.20
44477;DHT22;30180;44.788;10.366;2022-12-08T12:35:31;17.90;69.10
44477;DHT22;30180;44.788;10.366;2022-12-08T12:38:03;17.80;69.10
44477;DHT22;30180;44.788;10.366;2022-12-08T12:40:58;17.80;69.10
44477;DHT22;30180;44.788;10.366;2022-12-08T12:43:31;17.80;69.10
44477;DHT22;30180;44.788;10.366;2022-12-08T12:46:40;17.80;69.10
44477;DHT22;30180;44.788;10.366;2022-12-08T12:58:48;17.70;69.00
44477;DHT22;30180;44.788;10.366;2022-12-08T13:04:31;17.70;69.00
44477;DHT22;30180;44.788;10.366;2022-12-08T13:07:01;17.70;69.00
44477;DHT22;30180;44.788;10.366;2022-12-08T13:09:35;17.70;69.00
44477;DHT22;30180;44.788;10.366;2022-12-08T13:12:09;17.70;69.00
44477;DHT22;30180;44.788;10.366;2022-12-08T13:14:44;17.70;69.00
44477;DHT22;30180;44.788;10.366;2022-12-08T13:17:23;17.70;69.00
44477;DHT22;30180;44.788;10.366;2022-12-08T13:19:55;17.60;69.00
44477;DHT22;30180;44.788;10.366;2022-12-08T13:23:02;17.60;68.90
44477;DHT22;30180;44.788;10.366;2022-12-08T13:25:46;17.60;68.90
44477;DHT22;30180;44.788;10.366;2022-12-08T13:28:21;17.60;69.00
44477;DHT22;30180;44.788;10.366;2022-12-08T13:30:52;17.60;69.00
44477;DHT22;30180;44.788;10.366;2022-12-08T13:33:29;17.60;69.00
44477;DHT22;30180;44.788;10.366;2022-12-08T13:36:17;17.60;68.90
44477;DHT22;30180;44.788;10.366;2022-12-08T13:38:48;17.60;68.90
44477;DHT22;30180;44.788;10.366;2022-12-08T13:41:23;17.60;69.00
44477;DHT22;30180;44.788;10.366;2022-12-08T13:43:58;17.60;69.00
44477;DHT22;30180;44.788;10.366;2022-12-08T13:46:52;17.60;69.00
44477;DHT22;30180;44.788;10.366;2022-12-08T13:49:47;17.60;69.00
44477;DHT22;30180;44.788;10.366;2022-12-08T13:52:42;17.60;69.10
44477;DHT22;30180;44.788;10.366;2022-12-08T13:55:34;17.60;69.10
44477;DHT22;30180;44.788;10.366;2022-12-08T13:58:26;17.60;69.10
44477;DHT22;30180;44.788;10.366;2022-12-08T14:01:03;17.60;69.40
44477;DHT22;30180;44.788;10.366;2022-12-08T14:03:45;17.60;69.10
44477;DHT22;30180;44.788;10.366;2022-12-08T14:06:35;17.60;69.10
44477;DHT22;30180;44.788;10.366;2022-12-08T14:09:08;17.60;69.10
44477;DHT22;30180;44.788;10.366;2022-12-08T14:11:39;17.60;69.20
44477;DHT22;30180;44.788;10.366;2022-12-08T14:14:13;17.60;69.10
44477;DHT22;30180;44.788;10.366;2022-12-08T14:17:04;17.60;69.10
44477;DHT22;30180;44.788;10.366;2022-12-08T14:19:35;17.60;69.10
44477;DHT22;30180;44.788;10.366;2022-12-08T14:22:10;17.60;69.10
44477;DHT22;30180;44.788;10.366;2022-12-08T14:24:39;17.50;69.00
44477;DHT22;30180;44.788;10.366;2022-12-08T14:27:10;17.50;69.00
44477;DHT22;30180;44.788;10.366;2022-12-08T14:29:42;17.50;69.10
44477;DHT22;30180;44.788;10.366;2022-12-08T14:32:26;17.50;69.10
44477;DHT22;30180;44.788;10.366;2022-12-08T14:35:00;17.60;69.20
44477;DHT22;30180;44.788;10.366;2022-12-08T14:37:31;17.50;69.00
44477;DHT22;30180;44.788;10.366;2022-12-08T14:40:03;17.50;69.00
44477;DHT22;30180;44.788;10.366;2022-12-08T14:42:42;17.50;69.00
44477;DHT22;30180;44.788;10.366;2022-12-08T14:45:13;17.50;69.10
44477;DHT22;30180;44.788;10.366;2022-12-08T14:47:41;17.50;69.10
44477;DHT22;30180;44.788;10.366;2022-12-08T14:50:37;17.50;69.20
44477;DHT22;30180;44.788;10.366;2022-12-08T14:53:13;17.50;69.20
44477;DHT22;30180;44.788;10.366;2022-12-08T14:55:43;17.50;69.20
44477;DHT22;30180;44.788;10.366;2022-12-08T14:58:18;17.50;69.10
44477;DHT22;30180;44.788;10.366;2022-12-08T15:00:48;17.50;69.10
44477;DHT22;30180;44.788;10.366;2022-12-08T15:03:21;17.50;69.10
44477;DHT22;30180;44.788;10.366;2022-12-08T15:05:54;17.50;69.10
44477;DHT22;30180;44.788;10.366;2022-12-08T15:08:23;17.50;69.10
44477;DHT22;30180;44.788;10.366;2022-12-08T15:11:12;17.50;69.10
44477;DHT22;30180;44.788;10.366;2022-12-08T15:13:45;17.50;69.20
44477;DHT22;30180;44.788;10.366;2022-12-08T15:16:25;17.50;69.10
44477;DHT22;30180;44.788;10.366;2022-12-08T15:19:02;17.40;69.70
44477;DHT22;30180;44.788;10.366;2022-12-08T15:21:36;17.50;69.20
44477;DHT22;30180;44.788;10.366;2022-12-08T15:24:05;17.40;69.20
44477;DHT22;30180;44.788;10.366;2022-12-08T15:26:39;17.40;69.20
44477;DHT22;30180;44.788;10.366;2022-12-08T15:29:10;17.50;69.30
44477;DHT22;30180;44.788;10.366;2022-12-08T15:31:39;17.50;69.30
44477;DHT22;30180;44.788;10.366;2022-12-08T15:34:07;17.50;69.40
44477;DHT22;30180;44.788;10.366;2022-12-08T15:36:37;17.50;69.30
44477;DHT22;30180;44.788;10.366;2022-12-08T15:39:25;17.50;69.40
44477;DHT22;30180;44.788;10.366;2022-12-08T15:41:55;17.50;69.40
44477;DHT22;30180;44.788;10.366;2022-12-08T15:44:24;17.50;69.50
44477;DHT22;30180;44.788;10.366;2022-12-08T15:46:52;17.50;69.50
44477;DHT22;30180;44.788;10.366;2022-12-08T15:49:22;17.50;69.50
44477;DHT22;30180;44.788;10.366;2022-12-08T15:51:52;17.50;69.60
44477;DHT22;30180;44.788;10.366;2022-12-08T15:54:36;17.60;69.70
44477;DHT22;30180;44.788;10.366;2022-12-08T15:57:05;17.60;69.70
44477;DHT22;30180;44.788;10.366;2022-12-08T15:59:54;17.60;69.70
44477;DHT22;30180;44.788;10.366;2022-12-08T16:02:22;17.60;69.70
44477;DHT22;30180;44.788;10.366;2022-12-08T16:04:51;17.60;69.80